sensor_id;sensor_type;location;lat;lon;timestamp;P1;durP1;ratioP1;P2;durP2;ratioP2
48789;SDS011;41718;51.980;5.734;2023-07-31T00:02:49;1.50;;;1.10;;
48789;SDS011;41718;51.980;5.734;2023-07-31T00:07:50;1.75;;;1.23;;
48789;SDS011;41718;51.980;5.734;2023-07-31T00:12:52;2.78;;;1.60;;
48789;SDS011;41718;51.980;5.734;2023-07-31T00:17:53;1.95;;;1.60;;
48789;SDS011;41718;51.980;5.734;2023-07-31T00:22:55;1.92;;;1.63;;
48789;SDS011;41718;51.980;5.734;2023-07-31T00:27:57;2.75;;;2.00;;
48789;SDS011;41718;51.980;5.734;2023-07-31T00:32:58;3.78;;;2.92;;
48789;SDS011;41718;51.980;5.734;2023-07-31T00:38:00;6.13;;;3.50;;
48789;SDS011;41718;51.980;5.734;2023-07-31T00:43:01;6.20;;;3.88;;
48789;SDS011;41718;51.980;5.734;2023-07-31T00:48:04;14.80;;;4.53;;
48789;SDS011;41718;51.980;5.734;2023-07-31T00:53:07;17.88;;;6.40;;
48789;SDS011;41718;51.980;5.734;2023-07-31T00:58:09;17.30;;;6.63;;
48789;SDS011;41718;51.980;5.734;2023-07-31T01:03:11;13.02;;;7.00;;
48789;SDS011;41718;51.980;5.734;2023-07-31T01:08:24;20.60;;;8.60;;
48789;SDS011;41718;51.980;5.734;2023-07-31T01:13:33;23.33;;;9.15;;
48789;SDS011;41718;51.980;5.734;2023-07-31T01:18:35;22.75;;;8.32;;
48789;SDS011;41718;51.980;5.734;2023-07-31T01:39:38;23.48;;;8.60;;
48789;SDS011;41718;51.980;5.734;2023-07-31T01:44:39;14.80;;;7.35;;
48789;SDS011;41718;51.980;5.734;2023-07-31T01:49:41;18.02;;;7.82;;
48789;SDS011;41718;51.980;5.734;2023-07-31T01:54:42;18.10;;;8.05;;
48789;SDS011;41718;51.980;5.734;2023-07-31T01:59:44;16.20;;;6.05;;
48789;SDS011;41718;51.980;5.734;2023-07-31T02:04:45;22.52;;;8.10;;
48789;SDS011;41718;51.980;5.734;2023-07-31T02:09:47;15.77;;;6.20;;
48789;SDS011;41718;51.980;5.734;2023-07-31T02:14:49;15.48;;;7.50;;
48789;SDS011;41718;51.980;5.734;2023-07-31T02:19:50;15.85;;;7.00;;
48789;SDS011;41718;51.980;5.734;2023-07-31T02:24:52;15.00;;;6.50;;
48789;SDS011;41718;51.980;5.734;2023-07-31T02:29:54;10.70;;;6.25;;
48789;SDS011;41718;51.980;5.734;2023-07-31T02:34:56;10.25;;;4.88;;
48789;SDS011;41718;51.980;5.734;2023-07-31T02:39:57;13.90;;;4.60;;
48789;SDS011;41718;51.980;5.734;2023-07-31T02:44:59;13.73;;;6.43;;
48789;SDS011;41718;51.980;5.734;2023-07-31T02:50:01;18.73;;;6.07;;
48789;SDS011;41718;51.980;5.734;2023-07-31T02:55:03;13.93;;;6.40;;
48789;SDS011;41718;51.980;5.734;2023-07-31T03:00:05;16.20;;;6.80;;
48789;SDS011;41718;51.980;5.734;2023-07-31T03:05:07;22.42;;;7.15;;
48789;SDS011;41718;51.980;5.734;2023-07-31T03:10:09;15.80;;;6.75;;
48789;SDS011;41718;51.980;5.734;2023-07-31T03:15:11;16.27;;;7.03;;
48789;SDS011;41718;51.980;5.734;2023-07-31T03:20:12;15.65;;;6.97;;
48789;SDS011;41718;51.980;5.734;2023-07-31T03:25:14;19.15;;;6.78;;
48789;SDS011;41718;51.980;5.734;2023-07-31T03:30:15;15.95;;;6.50;;
48789;SDS011;41718;51.980;5.734;2023-07-31T03:35:17;14.35;;;6.30;;
48789;SDS011;41718;51.980;5.734;2023-07-31T03:40:18;20.38;;;7.38;;
48789;SDS011;41718;51.980;5.734;2023-07-31T03:45:20;13.80;;;6.40;;
48789;SDS011;41718;51.980;5.734;2023-07-31T03:50:21;14.63;;;7.18;;
48789;SDS011;41718;51.980;5.734;2023-07-31T03:55:23;17.33;;;7.90;;
48789;SDS011;41718;51.980;5.734;2023-07-31T04:00:24;12.38;;;5.50;;
48789;SDS011;41718;51.980;5.734;2023-07-31T04:05:29;17.10;;;6.78;;
48789;SDS011;41718;51.980;5.734;2023-07-31T04:10:31;16.90;;;6.88;;
48789;SDS011;41718;51.980;5.734;2023-07-31T04:15:34;18.48;;;7.45;;
48789;SDS011;41718;51.980;5.734;2023-07-31T04:20:36;20.95;;;6.93;;
48789;SDS011;41718;51.980;5.734;2023-07-31T04:25:37;15.00;;;6.60;;
48789;SDS011;41718;51.980;5.734;2023-07-31T04:30:39;10.88;;;6.90;;
48789;SDS011;41718;51.980;5.734;2023-07-31T04:35:41;18.40;;;7.82;;
48789;SDS011;41718;51.980;5.734;2023-07-31T04:40:42;14.95;;;6.07;;
48789;SDS011;41718;51.980;5.734;2023-07-31T04:45:47;17.13;;;6.15;;
48789;SDS011;41718;51.980;5.734;2023-07-31T04:50:51;19.25;;;7.20;;
48789;SDS011;41718;51.980;5.734;2023-07-31T04:55:53;12.00;;;6.07;;
48789;SDS011;41718;51.980;5.734;2023-07-31T05:00:55;14.45;;;5.63;;
48789;SDS011;41718;51.980;5.734;2023-07-31T05:05:56;21.65;;;7.28;;
48789;SDS011;41718;51.980;5.734;2023-07-31T05:10:58;15.48;;;6.50;;
48789;SDS011;41718;51.980;5.734;2023-07-31T05:15:59;11.30;;;6.80;;
48789;SDS011;41718;51.980;5.734;2023-07-31T05:21:03;15.55;;;6.22;;
48789;SDS011;41718;51.980;5.734;2023-07-31T05:26:05;21.27;;;7.63;;
48789;SDS011;41718;51.980;5.734;2023-07-31T05:31:07;14.70;;;6.47;;
48789;SDS011;41718;51.980;5.734;2023-07-31T05:36:09;14.05;;;6.10;;
48789;SDS011;41718;51.980;5.734;2023-07-31T05:41:11;14.30;;;6.15;;
48789;SDS011;41718;51.980;5.734;2023-07-31T05:46:13;10.90;;;5.90;;
48789;SDS011;41718;51.980;5.734;2023-07-31T05:51:15;13.73;;;6.30;;
48789;SDS011;41718;51.980;5.734;2023-07-31T05:56:17;13.32;;;5.78;;
48789;SDS011;41718;51.980;5.734;2023-07-31T06:01:18;11.65;;;5.30;;
48789;SDS011;41718;51.980;5.734;2023-07-31T06:06:22;11.38;;;5.32;;
48789;SDS011;41718;51.980;5.734;2023-07-31T06:11:23;11.48;;;5.95;;
48789;SDS011;41718;51.980;5.734;2023-07-31T06:16:25;9.90;;;5.10;;
48789;SDS011;41718;51.980;5.734;2023-07-31T06:21:28;14.50;;;5.40;;
48789;SDS011;41718;51.980;5.734;2023-07-31T06:26:31;9.27;;;4.60;;
48789;SDS011;41718;51.980;5.734;2023-07-31T06:31:32;15.15;;;5.20;;
48789;SDS011;41718;51.980;5.734;2023-07-31T06:36:34;9.10;;;4.93;;
48789;SDS011;41718;51.980;5.734;2023-07-31T06:41:36;11.75;;;4.28;;
48789;SDS011;41718;51.980;5.734;2023-07-31T06:46:37;6.78;;;3.50;;
48789;SDS011;41718;51.980;5.734;2023-07-31T06:51:39;5.28;;;3.35;;
48789;SDS011;41718;51.980;5.734;2023-07-31T06:56:41;6.45;;;3.42;;
48789;SDS011;41718;51.980;5.734;2023-07-31T07:01:42;4.03;;;2.20;;
48789;SDS011;41718;51.980;5.734;2023-07-31T07:06:44;5.78;;;2.83;;
48789;SDS011;41718;51.980;5.734;2023-07-31T07:11:45;4.65;;;3.00;;
48789;SDS011;41718;51.980;5.734;2023-07-31T07:16:50;3.60;;;1.80;;
48789;SDS011;41718;51.980;5.734;2023-07-31T07:21:52;3.37;;;1.90;;
48789;SDS011;41718;51.980;5.734;2023-07-31T07:26:54;2.90;;;1.80;;
48789;SDS011;41718;51.980;5.734;2023-07-31T07:31:55;2.42;;;1.60;;
48789;SDS011;41718;51.980;5.734;2023-07-31T07:36:57;2.75;;;1.40;;
48789;SDS011;41718;51.980;5.734;2023-07-31T07:41:58;3.20;;;1.60;;
48789;SDS011;41718;51.980;5.734;2023-07-31T07:47:00;2.70;;;1.67;;
48789;SDS011;41718;51.980;5.734;2023-07-31T07:52:02;2.13;;;1.80;;
48789;SDS011;41718;51.980;5.734;2023-07-31T07:57:04;3.13;;;1.70;;
48789;SDS011;41718;51.980;5.734;2023-07-31T08:02:06;3.03;;;2.58;;
48789;SDS011;41718;51.980;5.734;2023-07-31T08:07:07;1.50;;;1.40;;
48789;SDS011;41718;51.980;5.734;2023-07-31T08:12:09;3.28;;;1.50;;
48789;SDS011;41718;51.980;5.734;2023-07-31T08:17:10;3.03;;;2.00;;
48789;SDS011;41718;51.980;5.734;2023-07-31T08:22:12;2.53;;;2.00;;
48789;SDS011;41718;51.980;5.734;2023-07-31T08:27:13;1.85;;;1.70;;
48789;SDS011;41718;51.980;5.734;2023-07-31T08:32:15;3.22;;;1.77;;
48789;SDS011;41718;51.980;5.734;2023-07-31T08:37:16;3.10;;;2.13;;
48789;SDS011;41718;51.980;5.734;2023-07-31T08:42:18;2.40;;;2.20;;
48789;SDS011;41718;51.980;5.734;2023-07-31T08:47:20;2.97;;;2.75;;
48789;SDS011;41718;51.980;5.734;2023-07-31T08:52:23;2.75;;;2.17;;
48789;SDS011;41718;51.980;5.734;2023-07-31T08:57:24;2.85;;;2.22;;
48789;SDS011;41718;51.980;5.734;2023-07-31T09:02:28;2.20;;;2.08;;
48789;SDS011;41718;51.980;5.734;2023-07-31T09:07:36;3.65;;;3.05;;
48789;SDS011;41718;51.980;5.734;2023-07-31T09:12:38;3.10;;;1.92;;
48789;SDS011;41718;51.980;5.734;2023-07-31T09:17:40;1.88;;;1.63;;
48789;SDS011;41718;51.980;5.734;2023-07-31T09:22:42;2.95;;;2.75;;
48789;SDS011;41718;51.980;5.734;2023-07-31T09:27:48;3.13;;;2.83;;
48789;SDS011;41718;51.980;5.734;2023-07-31T09:32:52;4.07;;;2.80;;
48789;SDS011;41718;51.980;5.734;2023-07-31T09:38:06;4.40;;;4.00;;
48789;SDS011;41718;51.980;5.734;2023-07-31T09:43:10;5.25;;;4.25;;
48789;SDS011;41718;51.980;5.734;2023-07-31T09:48:13;3.90;;;3.58;;
48789;SDS011;41718;51.980;5.734;2023-07-31T09:53:22;6.22;;;5.28;;
48789;SDS011;41718;51.980;5.734;2023-07-31T09:58:30;6.78;;;6.05;;
48789;SDS011;41718;51.980;5.734;2023-07-31T10:03:35;5.88;;;5.32;;
48789;SDS011;41718;51.980;5.734;2023-07-31T10:08:38;7.82;;;5.68;;
48789;SDS011;41718;51.980;5.734;2023-07-31T10:13:41;8.85;;;6.68;;
48789;SDS011;41718;51.980;5.734;2023-07-31T10:18:43;6.40;;;5.75;;
48789;SDS011;41718;51.980;5.734;2023-07-31T10:23:46;8.75;;;6.55;;
48789;SDS011;41718;51.980;5.734;2023-07-31T10:28:48;8.65;;;6.55;;
48789;SDS011;41718;51.980;5.734;2023-07-31T10:33:52;8.52;;;7.18;;
48789;SDS011;41718;51.980;5.734;2023-07-31T10:38:55;7.25;;;5.95;;
48789;SDS011;41718;51.980;5.734;2023-07-31T10:43:58;10.02;;;7.10;;
48789;SDS011;41718;51.980;5.734;2023-07-31T10:49:01;7.30;;;6.40;;
48789;SDS011;41718;51.980;5.734;2023-07-31T10:54:10;7.07;;;5.82;;
48789;SDS011;41718;51.980;5.734;2023-07-31T10:59:13;5.55;;;5.00;;
48789;SDS011;41718;51.980;5.734;2023-07-31T11:04:15;6.90;;;6.20;;
48789;SDS011;41718;51.980;5.734;2023-07-31T11:09:30;9.35;;;5.53;;
48789;SDS011;41718;51.980;5.734;2023-07-31T11:14:33;7.05;;;6.15;;
48789;SDS011;41718;51.980;5.734;2023-07-31T11:19:35;9.43;;;7.00;;
48789;SDS011;41718;51.980;5.734;2023-07-31T11:24:41;9.07;;;6.82;;
48789;SDS011;41718;51.980;5.734;2023-07-31T11:29:43;6.97;;;5.72;;
48789;SDS011;41718;51.980;5.734;2023-07-31T11:34:54;9.65;;;6.15;;
48789;SDS011;41718;51.980;5.734;2023-07-31T11:39:58;8.02;;;5.93;;
48789;SDS011;41718;51.980;5.734;2023-07-31T11:45:04;7.20;;;4.78;;
48789;SDS011;41718;51.980;5.734;2023-07-31T11:55:11;10.10;;;6.90;;
48789;SDS011;41718;51.980;5.734;2023-07-31T12:00:14;8.15;;;5.20;;
48789;SDS011;41718;51.980;5.734;2023-07-31T12:05:16;9.00;;;5.43;;
48789;SDS011;41718;51.980;5.734;2023-07-31T12:10:22;8.93;;;5.53;;
48789;SDS011;41718;51.980;5.734;2023-07-31T12:15:32;7.80;;;6.05;;
48789;SDS011;41718;51.980;5.734;2023-07-31T12:20:34;5.07;;;4.22;;
48789;SDS011;41718;51.980;5.734;2023-07-31T12:25:38;6.93;;;4.72;;
48789;SDS011;41718;51.980;5.734;2023-07-31T12:30:40;6.68;;;5.20;;
48789;SDS011;41718;51.980;5.734;2023-07-31T12:35:43;4.13;;;3.75;;
48789;SDS011;41718;51.980;5.734;2023-07-31T12:40:47;4.95;;;4.43;;
48789;SDS011;41718;51.980;5.734;2023-07-31T12:45:48;8.35;;;4.18;;
48789;SDS011;41718;51.980;5.734;2023-07-31T12:50:50;7.18;;;5.10;;
48789;SDS011;41718;51.980;5.734;2023-07-31T12:55:52;7.68;;;6.10;;
48789;SDS011;41718;51.980;5.734;2023-07-31T13:00:54;8.65;;;5.93;;
48789;SDS011;41718;51.980;5.734;2023-07-31T13:05:56;8.20;;;6.07;;
48789;SDS011;41718;51.980;5.734;2023-07-31T13:10:58;9.10;;;5.63;;
48789;SDS011;41718;51.980;5.734;2023-07-31T13:15:59;6.70;;;5.10;;
48789;SDS011;41718;51.980;5.734;2023-07-31T13:21:01;5.93;;;5.35;;
48789;SDS011;41718;51.980;5.734;2023-07-31T13:26:03;10.15;;;6.80;;
48789;SDS011;41718;51.980;5.734;2023-07-31T13:31:07;9.25;;;5.85;;
48789;SDS011;41718;51.980;5.734;2023-07-31T13:36:18;7.32;;;4.90;;
48789;SDS011;41718;51.980;5.734;2023-07-31T13:41:22;8.13;;;5.13;;
48789;SDS011;41718;51.980;5.734;2023-07-31T13:46:24;5.32;;;4.38;;
48789;SDS011;41718;51.980;5.734;2023-07-31T13:51:27;6.65;;;5.45;;
48789;SDS011;41718;51.980;5.734;2023-07-31T13:56:29;5.80;;;3.65;;
48789;SDS011;41718;51.980;5.734;2023-07-31T14:01:31;7.03;;;5.45;;
48789;SDS011;41718;51.980;5.734;2023-07-31T14:06:32;7.13;;;5.85;;
48789;SDS011;41718;51.980;5.734;2023-07-31T14:11:34;7.50;;;5.78;;
48789;SDS011;41718;51.980;5.734;2023-07-31T14:16:38;7.82;;;5.82;;
48789;SDS011;41718;51.980;5.734;2023-07-31T14:21:40;10.93;;;6.72;;
48789;SDS011;41718;51.980;5.734;2023-07-31T14:26:42;8.38;;;5.30;;
48789;SDS011;41718;51.980;5.734;2023-07-31T14:31:43;9.90;;;7.13;;
48789;SDS011;41718;51.980;5.734;2023-07-31T14:36:46;8.68;;;5.93;;
48789;SDS011;41718;51.980;5.734;2023-07-31T14:41:47;5.75;;;4.78;;
48789;SDS011;41718;51.980;5.734;2023-07-31T14:46:49;10.05;;;3.75;;
48789;SDS011;41718;51.980;5.734;2023-07-31T14:51:51;5.55;;;4.75;;
48789;SDS011;41718;51.980;5.734;2023-07-31T14:56:52;8.40;;;4.70;;
48789;SDS011;41718;51.980;5.734;2023-07-31T15:01:54;6.88;;;4.45;;
48789;SDS011;41718;51.980;5.734;2023-07-31T15:06:55;9.95;;;5.82;;
48789;SDS011;41718;51.980;5.734;2023-07-31T15:11:57;8.40;;;5.75;;
48789;SDS011;41718;51.980;5.734;2023-07-31T15:16:59;6.50;;;5.50;;
48789;SDS011;41718;51.980;5.734;2023-07-31T15:22:01;7.15;;;5.18;;
48789;SDS011;41718;51.980;5.734;2023-07-31T15:27:03;6.85;;;4.95;;
48789;SDS011;41718;51.980;5.734;2023-07-31T15:32:05;8.07;;;5.03;;
48789;SDS011;41718;51.980;5.734;2023-07-31T15:37:07;6.30;;;4.28;;
48789;SDS011;41718;51.980;5.734;2023-07-31T15:42:08;6.65;;;4.75;;
48789;SDS011;41718;51.980;5.734;2023-07-31T15:47:10;10.95;;;5.88;;
48789;SDS011;41718;51.980;5.734;2023-07-31T15:52:12;7.80;;;4.07;;
48789;SDS011;41718;51.980;5.734;2023-07-31T15:57:13;6.95;;;4.47;;
48789;SDS011;41718;51.980;5.734;2023-07-31T16:02:15;6.32;;;3.08;;
48789;SDS011;41718;51.980;5.734;2023-07-31T16:07:16;6.43;;;3.72;;
48789;SDS011;41718;51.980;5.734;2023-07-31T16:12:18;5.20;;;3.47;;
48789;SDS011;41718;51.980;5.734;2023-07-31T16:17:19;5.32;;;3.03;;
48789;SDS011;41718;51.980;5.734;2023-07-31T16:22:21;2.90;;;1.80;;
48789;SDS011;41718;51.980;5.734;2023-07-31T16:27:22;2.25;;;1.50;;
48789;SDS011;41718;51.980;5.734;2023-07-31T16:32:26;3.45;;;1.48;;
48789;SDS011;41718;51.980;5.734;2023-07-31T16:37:31;1.30;;;1.10;;
48789;SDS011;41718;51.980;5.734;2023-07-31T16:42:33;1.55;;;1.00;;
48789;SDS011;41718;51.980;5.734;2023-07-31T16:47:35;2.28;;;1.20;;
48789;SDS011;41718;51.980;5.734;2023-07-31T16:52:36;1.83;;;1.25;;
48789;SDS011;41718;51.980;5.734;2023-07-31T16:57:38;2.83;;;1.35;;
48789;SDS011;41718;51.980;5.734;2023-07-31T17:02:40;2.35;;;0.70;;
48789;SDS011;41718;51.980;5.734;2023-07-31T17:07:42;0.95;;;0.77;;
48789;SDS011;41718;51.980;5.734;2023-07-31T17:12:43;1.45;;;1.00;;
48789;SDS011;41718;51.980;5.734;2023-07-31T17:17:44;3.00;;;1.25;;
48789;SDS011;41718;51.980;5.734;2023-07-31T17:22:46;3.13;;;1.20;;
48789;SDS011;41718;51.980;5.734;2023-07-31T17:27:49;9.00;;;1.77;;
48789;SDS011;41718;51.980;5.734;2023-07-31T17:32:53;0.65;;;0.65;;
48789;SDS011;41718;51.980;5.734;2023-07-31T17:37:55;1.13;;;1.05;;
48789;SDS011;41718;51.980;5.734;2023-07-31T17:42:59;1.23;;;1.05;;
48789;SDS011;41718;51.980;5.734;2023-07-31T17:48:01;1.63;;;1.00;;
48789;SDS011;41718;51.980;5.734;2023-07-31T17:53:02;1.52;;;1.23;;
48789;SDS011;41718;51.980;5.734;2023-07-31T17:58:08;1.75;;;1.08;;
48789;SDS011;41718;51.980;5.734;2023-07-31T18:03:09;1.00;;;0.80;;
48789;SDS011;41718;51.980;5.734;2023-07-31T18:08:13;1.20;;;0.85;;
48789;SDS011;41718;51.980;5.734;2023-07-31T18:13:15;1.88;;;0.70;;
48789;SDS011;41718;51.980;5.734;2023-07-31T18:18:17;2.42;;;1.05;;
48789;SDS011;41718;51.980;5.734;2023-07-31T18:23:19;2.45;;;0.88;;
48789;SDS011;41718;51.980;5.734;2023-07-31T18:28:20;0.63;;;0.60;;
48789;SDS011;41718;51.980;5.734;2023-07-31T18:33:22;1.95;;;0.68;;
48789;SDS011;41718;51.980;5.734;2023-07-31T18:38:24;0.65;;;0.55;;
48789;SDS011;41718;51.980;5.734;2023-07-31T18:43:25;1.50;;;0.80;;
48789;SDS011;41718;51.980;5.734;2023-07-31T18:48:27;0.98;;;0.80;;
48789;SDS011;41718;51.980;5.734;2023-07-31T18:53:29;1.48;;;0.80;;
48789;SDS011;41718;51.980;5.734;2023-07-31T18:58:30;0.95;;;0.75;;
48789;SDS011;41718;51.980;5.734;2023-07-31T19:03:32;1.15;;;0.98;;
48789;SDS011;41718;51.980;5.734;2023-07-31T19:08:33;2.13;;;0.82;;
48789;SDS011;41718;51.980;5.734;2023-07-31T19:13:37;0.63;;;0.63;;
48789;SDS011;41718;51.980;5.734;2023-07-31T19:18:39;0.80;;;0.80;;
48789;SDS011;41718;51.980;5.734;2023-07-31T19:23:40;2.13;;;0.80;;
48789;SDS011;41718;51.980;5.734;2023-07-31T19:28:42;1.00;;;1.00;;
48789;SDS011;41718;51.980;5.734;2023-07-31T19:33:44;0.60;;;0.60;;
48789;SDS011;41718;51.980;5.734;2023-07-31T19:38:46;0.70;;;0.70;;
48789;SDS011;41718;51.980;5.734;2023-07-31T19:43:47;4.80;;;1.40;;
48789;SDS011;41718;51.980;5.734;2023-07-31T19:48:49;1.83;;;1.10;;
48789;SDS011;41718;51.980;5.734;2023-07-31T19:53:51;2.55;;;1.50;;
48789;SDS011;41718;51.980;5.734;2023-07-31T19:58:53;1.55;;;1.40;;
48789;SDS011;41718;51.980;5.734;2023-07-31T20:03:54;1.58;;;1.48;;
48789;SDS011;41718;51.980;5.734;2023-07-31T20:08:56;4.35;;;1.80;;
48789;SDS011;41718;51.980;5.734;2023-07-31T20:14:00;3.20;;;1.80;;
48789;SDS011;41718;51.980;5.734;2023-07-31T20:19:06;6.35;;;2.38;;
48789;SDS011;41718;51.980;5.734;2023-07-31T20:24:08;5.00;;;2.33;;
48789;SDS011;41718;51.980;5.734;2023-07-31T20:29:10;3.20;;;2.60;;
48789;SDS011;41718;51.980;5.734;2023-07-31T20:34:12;3.75;;;2.80;;
48789;SDS011;41718;51.980;5.734;2023-07-31T20:39:14;4.70;;;2.65;;
48789;SDS011;41718;51.980;5.734;2023-07-31T20:44:15;2.22;;;1.77;;
48789;SDS011;41718;51.980;5.734;2023-07-31T20:49:17;5.18;;;2.60;;
48789;SDS011;41718;51.980;5.734;2023-07-31T20:54:21;3.08;;;2.47;;
48789;SDS011;41718;51.980;5.734;2023-07-31T20:59:24;3.03;;;2.50;;
48789;SDS011;41718;51.980;5.734;2023-07-31T21:04:28;5.18;;;2.58;;
48789;SDS011;41718;51.980;5.734;2023-07-31T21:09:33;2.38;;;2.13;;
48789;SDS011;41718;51.980;5.734;2023-07-31T21:14:34;3.58;;;2.42;;
48789;SDS011;41718;51.980;5.734;2023-07-31T21:19:36;3.40;;;2.38;;
48789;SDS011;41718;51.980;5.734;2023-07-31T21:24:40;5.30;;;2.55;;
48789;SDS011;41718;51.980;5.734;2023-07-31T21:29:42;6.78;;;2.42;;
48789;SDS011;41718;51.980;5.734;2023-07-31T21:34:43;4.35;;;2.85;;
48789;SDS011;41718;51.980;5.734;2023-07-31T21:39:45;4.25;;;2.92;;
48789;SDS011;41718;51.980;5.734;2023-07-31T21:44:47;5.60;;;3.08;;
48789;SDS011;41718;51.980;5.734;2023-07-31T21:49:49;3.17;;;2.85;;
48789;SDS011;41718;51.980;5.734;2023-07-31T21:54:50;4.22;;;3.75;;
48789;SDS011;41718;51.980;5.734;2023-07-31T21:59:53;5.53;;;3.78;;
48789;SDS011;41718;51.980;5.734;2023-07-31T22:04:54;5.55;;;3.75;;
48789;SDS011;41718;51.980;5.734;2023-07-31T22:09:57;5.65;;;4.28;;
48789;SDS011;41718;51.980;5.734;2023-07-31T22:15:01;5.32;;;4.28;;
48789;SDS011;41718;51.980;5.734;2023-07-31T22:20:03;6.82;;;4.10;;
48789;SDS011;41718;51.980;5.734;2023-07-31T22:25:05;4.85;;;4.32;;
48789;SDS011;41718;51.980;5.734;2023-07-31T22:30:08;5.72;;;3.80;;
48789;SDS011;41718;51.980;5.734;2023-07-31T22:35:12;5.22;;;4.13;;
48789;SDS011;41718;51.980;5.734;2023-07-31T22:40:14;5.95;;;4.55;;
48789;SDS011;41718;51.980;5.734;2023-07-31T22:45:17;5.13;;;3.70;;
48789;SDS011;41718;51.980;5.734;2023-07-31T22:50:18;4.65;;;3.92;;
48789;SDS011;41718;51.980;5.734;2023-07-31T22:55:20;5.03;;;3.75;;
48789;SDS011;41718;51.980;5.734;2023-07-31T23:00:23;4.78;;;3.67;;
48789;SDS011;41718;51.980;5.734;2023-07-31T23:05:25;5.93;;;4.50;;
48789;SDS011;41718;51.980;5.734;2023-07-31T23:10:26;8.52;;;4.45;;
48789;SDS011;41718;51.980;5.734;2023-07-31T23:15:31;7.90;;;4.20;;
48789;SDS011;41718;51.980;5.734;2023-07-31T23:20:32;5.32;;;3.58;;
48789;SDS011;41718;51.980;5.734;2023-07-31T23:25:35;4.13;;;3.72;;
48789;SDS011;41718;51.980;5.734;2023-07-31T23:30:37;4.28;;;3.60;;
48789;SDS011;41718;51.980;5.734;2023-07-31T23:35:38;6.05;;;4.00;;
48789;SDS011;41718;51.980;5.734;2023-07-31T23:40:40;8.77;;;3.63;;
48789;SDS011;41718;51.980;5.734;2023-07-31T23:45:41;7.10;;;3.80;;
48789;SDS011;41718;51.980;5.734;2023-07-31T23:50:43;8.00;;;5.32;;
48789;SDS011;41718;51.980;5.734;2023-07-31T23:55:45;6.82;;;3.83;;
